Time;durP1;ratioP1;P1;durP2;ratioP2;P2;SDS_P1;SDS_P2;PMS_P1;PMS_P2;Temp;Humidity;BMP_temperature;BMP_pressure;BME280_temperature;BME280_humidity;BME280_pressure;Samples;Min_cycle;Max_cycle;Signal;HPM_P1;HPM_P2
2022/01/26 00:07:10;;;;;;;13.23;8.65;;;;;;;;;;4991581;28;20048;-75
2022/01/26 00:09:37;;;;;;;10.40;6.47;;;;;;;;;;5005392;28;20224;-73
2022/01/26 00:12:05;;;;;;;13.27;8.80;;;;;;;;;;5008341;28;20045;-73
2022/01/26 00:14:34;;;;;;;14.90;8.75;;;;;;;;;;5008319;28;20416;-74
2022/01/26 00:17:01;;;;;;;13.60;7.43;;;;;;;;;;5007839;28;20080;-74
2022/01/26 00:19:44;;;;;;;11.23;7.10;;;;;;;;;;5010577;28;20616;-75
2022/01/26 00:22:22;;;;;;;5.97;3.60;;;;;;;;;;5012533;28;20045;-72
2022/01/26 00:25:06;;;;;;;10.00;6.85;;;;;;;;;;5032732;28;20037;-74
2022/01/26 00:27:49;;;;;;;11.88;7.32;;;;;;;;;;5034122;28;20049;-73
2022/01/26 00:38:44;;;;;;;10.00;6.80;;;;;;;;;;4950174;28;20169;-74
2022/01/26 00:41:15;;;;;;;12.63;7.18;;;;;;;;;;4934825;28;20105;-73
2022/01/26 00:43:47;;;;;;;14.32;8.25;;;;;;;;;;4951635;28;20080;-74
2022/01/26 00:46:15;;;;;;;11.75;7.75;;;;;;;;;;4934593;28;20170;-74
2022/01/26 00:48:43;;;;;;;9.93;7.40;;;;;;;;;;4957290;28;20047;-74
2022/01/26 00:51:15;;;;;;;14.20;8.60;;;;;;;;;;4953752;28;20042;-74
2022/01/26 00:53:49;;;;;;;12.02;8.25;;;;;;;;;;4953843;28;20114;-74
2022/01/26 00:56:18;;;;;;;11.57;8.48;;;;;;;;;;4953884;28;20054;-74
2022/01/26 00:58:46;;;;;;;13.05;8.60;;;;;;;;;;4951256;28;20138;-73
2022/01/26 01:01:13;;;;;;;15.18;8.38;;;;;;;;;;4934865;28;20114;-73
2022/01/26 01:03:44;;;;;;;13.02;9.07;;;;;;;;;;4949687;28;20054;-73
2022/01/26 01:06:19;;;;;;;12.02;8.05;;;;;;;;;;4951758;28;20053;-73
2022/01/26 01:08:47;;;;;;;7.88;5.28;;;;;;;;;;4951620;28;20062;-73
2022/01/26 01:11:15;;;;;;;12.45;8.40;;;;;;;;;;5028923;28;20358;-73
2022/01/26 01:13:43;;;;;;;12.05;7.72;;;;;;;;;;5031915;28;20044;-73
2022/01/26 01:16:13;;;;;;;10.07;6.35;;;;;;;;;;5015657;28;20164;-73
2022/01/26 01:24:23;;;;;;;14.20;9.35;;;;;;;;;;5032212;28;20047;-74
2022/01/26 01:29:43;;;;;;;14.32;9.15;;;;;;;;;;5032525;28;20076;-73
2022/01/26 01:32:13;;;;;;;15.55;9.73;;;;;;;;;;5033537;28;20041;-74
2022/01/26 01:34:40;;;;;;;11.13;7.35;;;;;;;;;;5015373;28;20068;-73
2022/01/26 01:37:09;;;;;;;11.68;8.25;;;;;;;;;;5032584;28;20508;-73
2022/01/26 01:39:37;;;;;;;14.93;9.82;;;;;;;;;;5034204;28;20091;-75
2022/01/26 01:42:06;;;;;;;11.60;7.45;;;;;;;;;;5033802;28;20049;-75
2022/01/26 01:44:34;;;;;;;14.20;8.80;;;;;;;;;;5035506;28;20271;-75
2022/01/26 01:47:03;;;;;;;11.43;7.75;;;;;;;;;;5035697;28;20472;-73
2022/01/26 01:49:30;;;;;;;11.80;8.73;;;;;;;;;;5016700;28;20069;-75
2022/01/26 01:52:02;;;;;;;12.82;8.05;;;;;;;;;;5030972;28;20041;-74
2022/01/26 01:54:30;;;;;;;11.25;7.38;;;;;;;;;;5036770;28;20040;-75
2022/01/26 01:56:58;;;;;;;11.27;6.95;;;;;;;;;;5032688;28;20055;-74
2022/01/26 01:59:27;;;;;;;9.65;7.35;;;;;;;;;;5032382;28;20075;-74
2022/01/26 02:01:54;;;;;;;11.10;7.70;;;;;;;;;;5034045;28;20108;-73
2022/01/26 02:04:22;;;;;;;11.60;7.38;;;;;;;;;;5034878;28;20044;-74
2022/01/26 02:06:50;;;;;;;13.50;9.02;;;;;;;;;;5017939;28;20122;-74
2022/01/26 02:09:17;;;;;;;11.43;7.03;;;;;;;;;;5031535;28;20132;-74
2022/01/26 02:11:47;;;;;;;9.30;7.15;;;;;;;;;;5029940;28;20215;-75
2022/01/26 02:14:35;;;;;;;13.90;8.65;;;;;;;;;;5032503;28;20373;-74
2022/01/26 02:17:16;;;;;;;11.95;7.95;;;;;;;;;;5010317;28;20171;-73
2022/01/26 02:55:39;;;;;;;11.13;7.03;;;;;;;;;;5012713;28;20053;-75
2022/01/26 02:58:45;;;;;;;11.25;7.75;;;;;;;;;;4993575;28;20172;-74
2022/01/26 03:03:52;;;;;;;12.43;7.43;;;;;;;;;;5014826;28;20049;-74
2022/01/26 03:06:27;;;;;;;10.68;7.82;;;;;;;;;;5017565;28;21776;-74
2022/01/26 03:09:00;;;;;;;11.15;7.40;;;;;;;;;;5016898;28;20057;-74
2022/01/26 03:11:31;;;;;;;9.90;7.53;;;;;;;;;;5032849;28;20053;-74
2022/01/26 03:14:08;;;;;;;12.48;8.00;;;;;;;;;;5038135;28;20386;-74
2022/01/26 03:16:42;;;;;;;10.13;7.18;;;;;;;;;;5037880;28;20548;-73
2022/01/26 03:19:22;;;;;;;11.25;7.45;;;;;;;;;;5037130;28;20129;-75
2022/01/26 03:30:00;;;;;;;11.45;7.63;;;;;;;;;;5039266;28;20484;-74
2022/01/26 03:34:59;;;;;;;11.52;7.10;;;;;;;;;;5022643;28;20138;-74
2022/01/26 03:37:33;;;;;;;12.07;7.13;;;;;;;;;;5039046;28;20079;-74
2022/01/26 03:40:03;;;;;;;14.02;7.05;;;;;;;;;;5017316;28;20124;-75
2022/01/26 03:42:30;;;;;;;14.07;8.25;;;;;;;;;;5030817;28;20049;-75
2022/01/26 03:44:58;;;;;;;11.73;7.38;;;;;;;;;;5036824;28;20496;-73
2022/01/26 03:47:25;;;;;;;11.52;8.27;;;;;;;;;;5035682;28;20041;-74
2022/01/26 03:49:52;;;;;;;13.27;8.25;;;;;;;;;;5037315;28;20128;-74
2022/01/26 03:52:20;;;;;;;15.05;8.38;;;;;;;;;;5033503;28;21021;-75
2022/01/26 03:54:47;;;;;;;10.20;6.65;;;;;;;;;;5034004;28;20041;-75
2022/01/26 03:57:15;;;;;;;11.88;7.07;;;;;;;;;;5032966;28;20555;-74
2022/01/26 03:59:42;;;;;;;13.48;8.75;;;;;;;;;;5035439;28;20131;-74
2022/01/26 04:02:09;;;;;;;13.18;8.45;;;;;;;;;;5031994;28;20044;-75
2022/01/26 04:04:45;;;;;;;13.68;9.75;;;;;;;;;;5032943;28;20051;-74
2022/01/26 04:07:13;;;;;;;16.40;10.82;;;;;;;;;;5034221;28;20044;-74
2022/01/26 04:09:40;;;;;;;14.75;10.45;;;;;;;;;;4993697;28;20046;-74
2022/01/26 04:12:08;;;;;;;19.08;9.88;;;;;;;;;;4997152;28;20144;-75
2022/01/26 04:14:36;;;;;;;19.67;9.90;;;;;;;;;;4997783;28;20137;-75
2022/01/26 04:17:03;;;;;;;17.58;10.23;;;;;;;;;;4995600;28;20134;-74
2022/01/26 04:19:34;;;;;;;19.75;12.68;;;;;;;;;;4999128;28;20092;-74
2022/01/26 04:22:13;;;;;;;21.77;12.77;;;;;;;;;;4995958;28;20105;-74
2022/01/26 04:24:47;;;;;;;16.27;9.48;;;;;;;;;;4995554;28;20544;-74
2022/01/26 04:27:33;;;;;;;20.58;12.88;;;;;;;;;;4993624;28;20066;-74
2022/01/26 04:30:01;;;;;;;18.02;10.00;;;;;;;;;;4995456;28;20483;-75
2022/01/26 04:32:29;;;;;;;22.77;12.63;;;;;;;;;;4977533;28;20585;-74
2022/01/26 04:35:02;;;;;;;16.77;8.60;;;;;;;;;;4996939;28;20647;-74
2022/01/26 04:40:06;;;;;;;28.27;14.23;;;;;;;;;;5005328;28;20053;-74
2022/01/26 04:42:50;;;;;;;26.10;14.48;;;;;;;;;;5014136;28;20062;-74
2022/01/26 04:45:17;;;;;;;31.13;14.60;;;;;;;;;;5033991;28;20456;-75
2022/01/26 04:47:45;;;;;;;31.52;15.93;;;;;;;;;;5018051;28;20139;-75
2022/01/26 04:50:12;;;;;;;22.88;13.90;;;;;;;;;;5027806;28;20591;-74
2022/01/26 04:52:40;;;;;;;29.35;14.23;;;;;;;;;;5035228;28;20055;-74
2022/01/26 04:55:08;;;;;;;26.33;14.73;;;;;;;;;;5018936;28;20072;-74
2022/01/26 04:57:35;;;;;;;27.33;14.02;;;;;;;;;;5036067;28;20064;-75
2022/01/26 05:00:03;;;;;;;27.77;14.65;;;;;;;;;;5020989;28;20483;-74
2022/01/26 05:02:31;;;;;;;25.80;14.70;;;;;;;;;;5020365;28;20044;-75
2022/01/26 05:04:58;;;;;;;31.33;16.25;;;;;;;;;;5033787;28;20047;-74
2022/01/26 05:07:25;;;;;;;24.23;12.68;;;;;;;;;;5036760;28;20540;-74
2022/01/26 05:09:53;;;;;;;23.02;12.23;;;;;;;;;;5035535;28;20042;-74
2022/01/26 05:12:21;;;;;;;23.08;12.57;;;;;;;;;;5032395;28;20049;-73
2022/01/26 05:14:49;;;;;;;25.42;14.40;;;;;;;;;;5037083;28;20059;-75
2022/01/26 05:17:20;;;;;;;26.17;14.38;;;;;;;;;;5035577;28;20049;-74
2022/01/26 05:19:48;;;;;;;26.27;14.50;;;;;;;;;;5033640;28;20049;-75
2022/01/26 05:22:15;;;;;;;26.50;14.95;;;;;;;;;;5019886;28;20067;-74
2022/01/26 05:24:43;;;;;;;25.85;13.65;;;;;;;;;;5021301;28;20041;-75
2022/01/26 05:27:10;;;;;;;25.95;14.25;;;;;;;;;;5034714;28;20041;-74
2022/01/26 05:29:37;;;;;;;21.85;11.18;;;;;;;;;;5032587;28;20059;-74
2022/01/26 05:32:05;;;;;;;27.05;14.48;;;;;;;;;;5035413;28;20389;-74
2022/01/26 05:34:32;;;;;;;29.25;16.17;;;;;;;;;;5035714;28;20099;-75
2022/01/26 05:37:00;;;;;;;23.25;13.25;;;;;;;;;;5036439;28;20049;-73
2022/01/26 05:39:27;;;;;;;28.52;14.30;;;;;;;;;;5036113;28;20052;-75
2022/01/26 05:41:56;;;;;;;22.15;11.57;;;;;;;;;;5037613;28;20141;-74
2022/01/26 05:44:24;;;;;;;23.02;13.02;;;;;;;;;;5040487;28;22011;-74
2022/01/26 05:46:51;;;;;;;24.75;12.90;;;;;;;;;;5049223;28;20048;-74
2022/01/26 05:49:19;;;;;;;26.80;15.43;;;;;;;;;;5015565;28;20059;-74
2022/01/26 05:51:47;;;;;;;29.35;15.13;;;;;;;;;;5030194;28;20049;-74
2022/01/26 05:54:15;;;;;;;30.58;16.23;;;;;;;;;;5048660;28;20052;-74
2022/01/26 05:56:43;;;;;;;25.33;13.18;;;;;;;;;;5048107;28;20064;-74
2022/01/26 05:59:11;;;;;;;29.73;15.57;;;;;;;;;;5014618;28;20566;-74
2022/01/26 06:01:38;;;;;;;32.05;17.23;;;;;;;;;;5043673;28;20039;-74
2022/01/26 06:04:05;;;;;;;28.63;13.57;;;;;;;;;;5042252;28;20044;-74
2022/01/26 06:06:33;;;;;;;22.13;10.88;;;;;;;;;;5029884;28;20455;-73
2022/01/26 06:09:00;;;;;;;27.00;13.55;;;;;;;;;;5047511;28;20033;-73
2022/01/26 06:11:27;;;;;;;32.63;17.17;;;;;;;;;;5048962;28;20114;-73
2022/01/26 06:13:55;;;;;;;28.67;15.80;;;;;;;;;;5049529;28;20037;-74
2022/01/26 06:16:23;;;;;;;26.73;13.02;;;;;;;;;;5048376;28;20041;-73
2022/01/26 06:18:50;;;;;;;30.10;16.00;;;;;;;;;;5048788;28;20049;-74
2022/01/26 06:21:17;;;;;;;31.60;16.90;;;;;;;;;;5048262;28;20139;-74
2022/01/26 06:23:45;;;;;;;36.80;17.95;;;;;;;;;;5031099;28;20485;-74
2022/01/26 06:26:12;;;;;;;30.83;14.57;;;;;;;;;;5019054;28;20045;-75
2022/01/26 06:28:40;;;;;;;34.88;16.90;;;;;;;;;;5050062;28;20033;-73
2022/01/26 06:31:11;;;;;;;36.42;17.77;;;;;;;;;;5042997;28;20103;-74
2022/01/26 06:33:39;;;;;;;36.55;17.02;;;;;;;;;;5015664;28;20033;-73
2022/01/26 06:36:08;;;;;;;36.15;17.58;;;;;;;;;;5050283;28;20367;-74
2022/01/26 06:38:36;;;;;;;38.47;16.92;;;;;;;;;;5055369;28;20089;-74
2022/01/26 06:41:06;;;;;;;41.00;19.75;;;;;;;;;;5052207;28;20041;-73
2022/01/26 06:43:34;;;;;;;37.55;17.40;;;;;;;;;;5031905;28;20041;-73
2022/01/26 06:46:07;;;;;;;45.42;19.70;;;;;;;;;;5049515;28;20033;-74
2022/01/26 06:49:02;;;;;;;33.70;16.60;;;;;;;;;;5045534;28;20544;-74
2022/01/26 06:51:29;;;;;;;42.28;18.48;;;;;;;;;;5042629;28;20055;-75
2022/01/26 06:53:57;;;;;;;32.17;14.82;;;;;;;;;;5044939;28;20560;-74
2022/01/26 06:56:24;;;;;;;38.38;16.40;;;;;;;;;;5052693;28;20071;-73
2022/01/26 06:58:52;;;;;;;33.38;14.88;;;;;;;;;;5046840;28;20044;-72
2022/01/26 07:01:19;;;;;;;34.08;16.35;;;;;;;;;;5049331;28;20049;-75
2022/01/26 07:03:47;;;;;;;38.35;17.83;;;;;;;;;;5056880;28;20045;-73
2022/01/26 07:06:15;;;;;;;47.17;18.58;;;;;;;;;;5038522;28;20045;-74
2022/01/26 07:08:42;;;;;;;33.28;15.00;;;;;;;;;;5061967;28;20090;-74
2022/01/26 07:11:09;;;;;;;47.20;17.48;;;;;;;;;;5048396;28;20169;-74
2022/01/26 07:13:39;;;;;;;39.28;17.13;;;;;;;;;;5038826;28;20041;-74
2022/01/26 07:21:38;;;;;;;33.05;14.30;;;;;;;;;;5044696;28;20037;-74
2022/01/26 07:24:07;;;;;;;39.75;14.00;;;;;;;;;;5050285;28;20057;-73
2022/01/26 07:26:38;;;;;;;43.72;17.05;;;;;;;;;;5036824;28;20430;-73
2022/01/26 07:29:10;;;;;;;41.25;18.02;;;;;;;;;;5045010;28;20757;-73
2022/01/26 07:31:47;;;;;;;51.53;17.40;;;;;;;;;;5038665;28;20124;-73
2022/01/26 07:34:15;;;;;;;36.63;14.27;;;;;;;;;;5048347;28;20048;-74
2022/01/26 07:36:44;;;;;;;43.65;16.63;;;;;;;;;;5026905;28;20552;-73
2022/01/26 07:39:16;;;;;;;47.30;16.17;;;;;;;;;;5031075;28;20100;-73
2022/01/26 07:41:44;;;;;;;39.08;16.17;;;;;;;;;;5047039;28;20040;-73
2022/01/26 07:44:11;;;;;;;44.30;16.92;;;;;;;;;;5045593;28;20048;-73
2022/01/26 07:46:39;;;;;;;47.72;18.38;;;;;;;;;;5048584;28;20507;-73
2022/01/26 07:49:07;;;;;;;39.70;16.60;;;;;;;;;;5026130;28;20307;-73
2022/01/26 07:51:34;;;;;;;35.30;14.50;;;;;;;;;;5041602;28;20119;-74
2022/01/26 07:54:02;;;;;;;48.42;17.50;;;;;;;;;;5053153;28;20133;-74
2022/01/26 07:56:29;;;;;;;27.50;13.20;;;;;;;;;;5043329;28;20068;-73
2022/01/26 07:58:58;;;;;;;33.75;14.50;;;;;;;;;;5038191;28;20053;-74
2022/01/26 08:01:26;;;;;;;40.03;15.95;;;;;;;;;;5050039;28;20512;-73
2022/01/26 08:03:54;;;;;;;41.63;16.67;;;;;;;;;;5034872;28;20045;-73
2022/01/26 08:06:22;;;;;;;38.63;16.08;;;;;;;;;;5050606;28;20455;-73
2022/01/26 08:08:49;;;;;;;37.75;15.68;;;;;;;;;;5032524;28;20036;-73
2022/01/26 08:11:17;;;;;;;49.78;16.58;;;;;;;;;;5042802;28;20073;-74
2022/01/26 08:13:44;;;;;;;42.80;14.30;;;;;;;;;;5050551;28;20041;-73
2022/01/26 08:16:11;;;;;;;37.20;15.15;;;;;;;;;;5051129;28;20481;-74
2022/01/26 08:18:39;;;;;;;40.40;15.35;;;;;;;;;;5052271;28;20044;-74
2022/01/26 08:21:07;;;;;;;26.90;12.40;;;;;;;;;;5048748;28;20053;-73
2022/01/26 08:23:36;;;;;;;33.90;14.65;;;;;;;;;;5050555;28;20053;-73
2022/01/26 08:26:05;;;;;;;38.65;15.23;;;;;;;;;;5049520;28;20576;-74
2022/01/26 08:28:39;;;;;;;37.70;14.80;;;;;;;;;;5049691;28;20520;-74
2022/01/26 08:31:07;;;;;;;31.33;13.07;;;;;;;;;;5027911;28;20029;-74
2022/01/26 08:33:35;;;;;;;35.78;14.55;;;;;;;;;;5042224;28;20045;-74
2022/01/26 08:36:03;;;;;;;29.10;14.10;;;;;;;;;;5030865;28;20611;-73
2022/01/26 08:38:30;;;;;;;29.35;13.38;;;;;;;;;;5029242;28;20041;-76
2022/01/26 08:40:58;;;;;;;36.85;14.35;;;;;;;;;;5044030;28;20477;-73
2022/01/26 08:43:25;;;;;;;25.83;11.85;;;;;;;;;;5037867;28;20413;-73
2022/01/26 08:45:53;;;;;;;33.45;15.60;;;;;;;;;;5033643;28;20560;-74
2022/01/26 08:48:22;;;;;;;26.20;10.60;;;;;;;;;;5049444;28;20084;-75
2022/01/26 08:50:49;;;;;;;27.83;13.20;;;;;;;;;;5002303;28;20517;-73
2022/01/26 08:53:17;;;;;;;31.70;14.25;;;;;;;;;;5045584;28;20041;-73
2022/01/26 08:55:44;;;;;;;28.27;12.98;;;;;;;;;;5022058;28;20569;-74
2022/01/26 08:58:11;;;;;;;31.17;13.75;;;;;;;;;;5040680;28;20045;-72
2022/01/26 09:00:39;;;;;;;19.67;8.55;;;;;;;;;;5039441;28;20045;-72
2022/01/26 09:03:14;;;;;;;30.58;13.50;;;;;;;;;;5049221;28;20049;-74
2022/01/26 09:05:42;;;;;;;33.42;17.33;;;;;;;;;;5037858;28;20041;-74
2022/01/26 09:08:10;;;;;;;27.92;11.98;;;;;;;;;;5048865;28;20504;-73
2022/01/26 09:10:39;;;;;;;30.95;13.52;;;;;;;;;;5046341;28;20038;-73
2022/01/26 09:13:07;;;;;;;25.90;11.60;;;;;;;;;;5030185;28;20052;-73
2022/01/26 09:15:35;;;;;;;30.75;14.13;;;;;;;;;;5044148;28;20041;-73
2022/01/26 09:18:05;;;;;;;25.67;11.57;;;;;;;;;;5029172;28;20100;-75
2022/01/26 09:20:35;;;;;;;32.58;14.43;;;;;;;;;;5054951;28;20091;-74
2022/01/26 09:23:03;;;;;;;23.05;11.25;;;;;;;;;;5037318;28;20046;-73
2022/01/26 09:25:34;;;;;;;29.80;13.50;;;;;;;;;;5040561;28;20037;-72
2022/01/26 09:28:02;;;;;;;32.30;14.90;;;;;;;;;;5046495;28;20037;-73
2022/01/26 09:30:29;;;;;;;29.33;14.23;;;;;;;;;;5031806;28;20109;-75
2022/01/26 09:32:57;;;;;;;27.13;12.80;;;;;;;;;;5042010;28;20037;-74
2022/01/26 09:35:24;;;;;;;23.63;12.43;;;;;;;;;;5046393;28;20091;-74
2022/01/26 09:37:52;;;;;;;25.63;12.75;;;;;;;;;;5045899;28;20471;-74
2022/01/26 09:40:19;;;;;;;34.72;14.23;;;;;;;;;;5032708;28;20073;-74
2022/01/26 09:42:46;;;;;;;29.85;13.43;;;;;;;;;;5029764;28;20033;-74
2022/01/26 09:45:15;;;;;;;28.45;14.57;;;;;;;;;;5021653;28;20076;-74
2022/01/26 09:47:44;;;;;;;30.02;14.68;;;;;;;;;;5047590;28;20037;-74
2022/01/26 09:50:33;;;;;;;33.00;14.88;;;;;;;;;;5047681;28;20400;-75
2022/01/26 09:53:01;;;;;;;30.20;14.27;;;;;;;;;;5049636;28;20048;-74
2022/01/26 09:55:28;;;;;;;27.00;12.65;;;;;;;;;;5045682;28;20091;-75
2022/01/26 09:57:59;;;;;;;24.52;12.25;;;;;;;;;;5039546;28;20133;-74
2022/01/26 10:00:27;;;;;;;30.23;14.15;;;;;;;;;;5033765;28;20093;-74
2022/01/26 10:03:02;;;;;;;33.20;13.77;;;;;;;;;;5038307;28;20136;-75
2022/01/26 10:05:44;;;;;;;28.48;13.65;;;;;;;;;;5044477;28;20076;-75
2022/01/26 10:16:05;;;;;;;31.55;14.65;;;;;;;;;;5014442;28;20067;-73
2022/01/26 10:18:33;;;;;;;21.33;12.60;;;;;;;;;;5048725;28;20072;-73
2022/01/26 10:21:03;;;;;;;20.63;11.32;;;;;;;;;;5048732;28;20827;-73
2022/01/26 10:23:37;;;;;;;23.35;12.10;;;;;;;;;;5048957;28;20040;-73
2022/01/26 10:26:13;;;;;;;27.20;11.98;;;;;;;;;;5043999;28;20489;-74
2022/01/26 10:28:50;;;;;;;23.23;12.55;;;;;;;;;;5048182;28;20084;-74
2022/01/26 10:31:19;;;;;;;22.02;12.48;;;;;;;;;;5040875;28;20103;-74
2022/01/26 10:34:10;;;;;;;22.73;13.13;;;;;;;;;;5044959;28;20095;-74
2022/01/26 10:36:40;;;;;;;21.95;12.35;;;;;;;;;;5046479;28;20489;-74
2022/01/26 10:39:14;;;;;;;20.05;10.93;;;;;;;;;;5047312;28;20033;-73
2022/01/26 10:41:45;;;;;;;22.83;12.18;;;;;;;;;;5046430;28;20095;-73
2022/01/26 10:44:12;;;;;;;30.67;13.38;;;;;;;;;;5046697;28;20468;-73
2022/01/26 10:46:42;;;;;;;23.85;11.75;;;;;;;;;;5046042;28;20080;-74
2022/01/26 10:54:36;;;;;;;25.20;12.88;;;;;;;;;;5047160;28;20037;-73
2022/01/26 10:57:07;;;;;;;24.65;12.80;;;;;;;;;;5036479;28;20471;-73
2022/01/26 10:59:40;;;;;;;24.60;12.70;;;;;;;;;;5026163;28;20563;-73
2022/01/26 11:02:11;;;;;;;24.52;13.50;;;;;;;;;;5045324;28;20119;-73
2022/01/26 11:04:40;;;;;;;27.27;13.35;;;;;;;;;;5037670;28;20060;-73
2022/01/26 11:07:11;;;;;;;24.73;12.75;;;;;;;;;;5041542;28;20047;-73
2022/01/26 11:09:40;;;;;;;27.48;14.65;;;;;;;;;;5039592;28;20041;-73
2022/01/26 11:12:10;;;;;;;29.40;14.68;;;;;;;;;;4998540;28;20623;-73
2022/01/26 11:14:44;;;;;;;25.40;12.38;;;;;;;;;;5011809;28;20551;-73
2022/01/26 11:17:23;;;;;;;25.85;13.45;;;;;;;;;;5018668;28;20069;-73
2022/01/26 11:19:50;;;;;;;24.02;12.63;;;;;;;;;;5016842;28;20058;-74
2022/01/26 11:22:25;;;;;;;28.08;15.75;;;;;;;;;;5015189;28;20053;-74
2022/01/26 11:24:53;;;;;;;28.15;13.77;;;;;;;;;;4991102;28;20046;-75
2022/01/26 11:27:20;;;;;;;30.42;15.30;;;;;;;;;;5010024;28;20099;-74
2022/01/26 11:29:53;;;;;;;26.52;14.27;;;;;;;;;;5004214;28;20054;-74
2022/01/26 11:32:33;;;;;;;26.88;13.88;;;;;;;;;;5002289;28;20129;-74
2022/01/26 11:35:04;;;;;;;31.52;14.70;;;;;;;;;;5002706;28;20069;-75
2022/01/26 11:37:40;;;;;;;25.58;13.82;;;;;;;;;;4971439;28;20425;-74
2022/01/26 11:45:36;;;;;;;31.83;14.63;;;;;;;;;;5030529;28;20128;-75
2022/01/26 11:48:08;;;;;;;26.75;14.18;;;;;;;;;;5024713;28;20037;-74
2022/01/26 11:50:42;;;;;;;21.95;13.18;;;;;;;;;;5047403;28;20776;-73
2022/01/26 11:53:16;;;;;;;25.25;14.25;;;;;;;;;;5028086;28;20509;-75
2022/01/26 11:55:48;;;;;;;25.38;13.20;;;;;;;;;;5023663;28;20504;-73
2022/01/26 11:58:29;;;;;;;30.77;15.48;;;;;;;;;;5041269;28;20411;-73
2022/01/26 12:04:06;;;;;;;25.95;13.38;;;;;;;;;;5044554;28;20522;-76
2022/01/26 12:06:36;;;;;;;25.08;13.75;;;;;;;;;;5003580;28;20872;-73
2022/01/26 12:09:07;;;;;;;26.23;13.45;;;;;;;;;;4986832;28;20054;-75
2022/01/26 12:11:35;;;;;;;26.73;13.97;;;;;;;;;;4991274;28;20521;-75
2022/01/26 12:14:04;;;;;;;18.75;10.50;;;;;;;;;;5006154;28;20065;-74
2022/01/26 12:16:40;;;;;;;26.02;13.57;;;;;;;;;;5008103;28;20112;-74
2022/01/26 12:35:55;;;;;;;26.08;13.50;;;;;;;;;;5004040;28;20107;-74
2022/01/26 12:38:39;;;;;;;28.58;14.98;;;;;;;;;;5039068;28;20084;-76
2022/01/26 12:41:25;;;;;;;28.13;14.05;;;;;;;;;;5013765;28;20048;-76
2022/01/26 12:43:53;;;;;;;22.13;12.68;;;;;;;;;;5048286;28;20033;-76
2022/01/26 12:46:23;;;;;;;24.92;13.98;;;;;;;;;;5046925;28;20441;-76
2022/01/26 12:48:53;;;;;;;28.58;14.23;;;;;;;;;;5051360;28;20041;-74
2022/01/26 12:51:21;;;;;;;26.23;13.05;;;;;;;;;;5039906;28;20152;-74
2022/01/26 12:53:53;;;;;;;24.23;13.00;;;;;;;;;;5027770;28;20103;-74
2022/01/26 12:56:20;;;;;;;21.40;11.50;;;;;;;;;;5045587;28;20049;-74
2022/01/26 12:58:58;;;;;;;25.13;12.73;;;;;;;;;;5047137;28;20039;-73
2022/01/26 13:01:26;;;;;;;24.95;12.18;;;;;;;;;;5050089;28;20068;-73
2022/01/26 13:03:57;;;;;;;26.70;12.88;;;;;;;;;;5048547;28;20053;-73
2022/01/26 13:06:25;;;;;;;22.67;12.75;;;;;;;;;;5037973;28;20064;-73
2022/01/26 13:08:54;;;;;;;25.45;13.98;;;;;;;;;;5031638;28;20041;-76
2022/01/26 13:11:25;;;;;;;29.33;14.30;;;;;;;;;;5045698;28;20069;-74
2022/01/26 13:14:25;;;;;;;24.05;12.70;;;;;;;;;;5045387;28;20037;-74
2022/01/26 13:16:58;;;;;;;19.75;11.00;;;;;;;;;;5035745;28;20445;-73
2022/01/26 13:24:57;;;;;;;21.40;11.52;;;;;;;;;;5033500;28;20077;-76
2022/01/26 13:27:41;;;;;;;23.27;12.45;;;;;;;;;;5020152;28;20421;-75
2022/01/26 13:30:48;;;;;;;24.23;12.07;;;;;;;;;;5047192;28;20055;-73
2022/01/26 13:36:03;;;;;;;27.70;13.48;;;;;;;;;;5044507;28;20460;-74
2022/01/26 13:44:15;;;;;;;28.83;14.13;;;;;;;;;;4987422;28;20078;-73
2022/01/26 13:49:20;;;;;;;27.85;14.48;;;;;;;;;;4987223;28;20046;-73
2022/01/26 13:59:46;;;;;;;28.42;15.60;;;;;;;;;;4981826;28;20097;-74
2022/01/26 14:02:13;;;;;;;28.38;15.20;;;;;;;;;;4988930;28;20101;-75
2022/01/26 14:04:41;;;;;;;28.17;16.17;;;;;;;;;;4981678;28;20074;-73
2022/01/26 14:07:08;;;;;;;30.02;16.52;;;;;;;;;;4986141;28;20050;-73
2022/01/26 14:09:37;;;;;;;34.10;15.55;;;;;;;;;;4984066;28;20539;-74
2022/01/26 14:12:11;;;;;;;28.25;14.77;;;;;;;;;;4984555;28;20062;-74
2022/01/26 14:14:43;;;;;;;32.00;16.20;;;;;;;;;;4984837;28;20066;-75
2022/01/26 14:17:24;;;;;;;29.58;16.70;;;;;;;;;;5049047;28;20954;-73
2022/01/26 14:22:59;;;;;;;27.50;14.48;;;;;;;;;;5033106;28;20065;-74
2022/01/26 14:25:28;;;;;;;33.17;15.68;;;;;;;;;;5048023;28;20044;-74
2022/01/26 14:28:01;;;;;;;30.58;14.23;;;;;;;;;;5028480;28;20511;-74
2022/01/26 14:30:51;;;;;;;33.67;16.65;;;;;;;;;;5047116;28;20099;-73
2022/01/26 15:00:50;;;;;;;30.45;16.25;;;;;;;;;;5013277;28;20063;-75
2022/01/26 15:33:24;;;;;;;35.83;16.27;;;;;;;;;;5010143;28;20052;-74
2022/01/26 15:40:01;;;;;;;29.10;15.70;;;;;;;;;;5012853;28;20041;-74
2022/01/26 15:49:49;;;;;;;29.27;15.15;;;;;;;;;;5037934;28;20059;-76
2022/01/26 15:58:23;;;;;;;24.67;12.88;;;;;;;;;;5019901;28;20131;-74
2022/01/26 16:06:12;;;;;;;23.80;12.30;;;;;;;;;;5034795;28;20044;-76
2022/01/26 16:17:11;;;;;;;25.77;12.82;;;;;;;;;;5037754;28;20567;-75
2022/01/26 16:37:39;;;;;;;26.70;13.43;;;;;;;;;;5038115;28;20075;-74
2022/01/26 16:44:19;;;;;;;27.63;14.80;;;;;;;;;;5016806;28;20427;-74
2022/01/26 17:02:19;;;;;;;24.95;15.15;;;;;;;;;;5014263;28;20056;-74
2022/01/26 17:02:32;;;;;;;23.02;12.77;;;;;;;;;;4973428;28;20169;-74
2022/01/26 18:16:51;;;;;;;30.02;14.13;;;;;;;;;;5028404;28;20041;-74
2022/01/26 18:33:00;;;;;;;34.40;17.27;;;;;;;;;;5036697;28;20133;-74
2022/01/26 18:51:52;;;;;;;33.25;16.02;;;;;;;;;;5031456;28;20645;-74
2022/01/26 18:54:25;;;;;;;29.60;15.55;;;;;;;;;;5016488;28;20045;-75
2022/01/26 18:56:53;;;;;;;34.22;17.75;;;;;;;;;;5030326;28;20049;-75
2022/01/26 18:59:22;;;;;;;30.23;16.58;;;;;;;;;;5027853;28;20056;-74
2022/01/26 19:01:52;;;;;;;34.08;18.52;;;;;;;;;;5030146;28;20724;-73
2022/01/26 19:04:46;;;;;;;35.63;17.85;;;;;;;;;;5026904;28;20041;-75
2022/01/26 19:07:17;;;;;;;30.70;16.13;;;;;;;;;;5012082;28;20040;-76
2022/01/26 19:09:49;;;;;;;28.95;15.93;;;;;;;;;;5016165;28;20037;-74
2022/01/26 19:12:17;;;;;;;25.90;13.82;;;;;;;;;;5029326;28;20053;-73
2022/01/26 19:14:52;;;;;;;26.83;12.73;;;;;;;;;;5013743;28;20041;-75
2022/01/26 19:17:26;;;;;;;28.70;14.95;;;;;;;;;;5032448;28;20095;-74
2022/01/26 19:25:23;;;;;;;21.63;13.38;;;;;;;;;;5016945;28;20084;-77
2022/01/26 19:28:13;;;;;;;26.60;15.05;;;;;;;;;;5015583;28;20138;-75
2022/01/26 19:47:28;;;;;;;27.60;15.07;;;;;;;;;;5033089;28;20548;-74
2022/01/26 19:52:43;;;;;;;23.85;12.90;;;;;;;;;;5039149;28;20458;-74
2022/01/26 19:55:16;;;;;;;26.35;12.60;;;;;;;;;;5037181;28;20049;-74
2022/01/26 19:57:44;;;;;;;26.92;12.88;;;;;;;;;;5001283;28;20115;-73
2022/01/26 20:00:11;;;;;;;26.73;13.48;;;;;;;;;;5020308;28;20115;-76
2022/01/26 20:02:41;;;;;;;25.50;12.82;;;;;;;;;;5040549;28;20164;-76
2022/01/26 20:05:14;;;;;;;27.98;12.70;;;;;;;;;;5033040;28;20140;-76
2022/01/26 20:07:48;;;;;;;26.75;13.55;;;;;;;;;;5033829;28;20033;-75
2022/01/26 20:10:22;;;;;;;24.50;13.13;;;;;;;;;;5018711;28;20509;-75
2022/01/26 20:12:59;;;;;;;18.88;9.77;;;;;;;;;;5015994;28;20590;-73
2022/01/26 20:15:27;;;;;;;24.63;12.82;;;;;;;;;;5038565;28;20045;-73
2022/01/26 20:17:55;;;;;;;23.02;12.50;;;;;;;;;;5041492;28;20550;-75
2022/01/26 20:20:22;;;;;;;24.92;11.93;;;;;;;;;;5017768;28;20049;-75
2022/01/26 20:23:16;;;;;;;23.13;11.65;;;;;;;;;;5021451;28;20076;-75
2022/01/26 20:25:48;;;;;;;26.35;11.45;;;;;;;;;;5002230;28;20512;-74
2022/01/26 20:28:16;;;;;;;26.77;13.88;;;;;;;;;;5042872;28;20048;-75
2022/01/26 20:30:46;;;;;;;26.58;13.45;;;;;;;;;;5019627;28;20052;-74
2022/01/26 20:33:14;;;;;;;26.35;14.38;;;;;;;;;;5035318;28;20338;-73
2022/01/26 20:35:41;;;;;;;30.55;15.15;;;;;;;;;;5042523;28;20539;-74
2022/01/26 20:38:09;;;;;;;23.10;11.77;;;;;;;;;;5038043;28;20041;-74
2022/01/26 20:40:36;;;;;;;26.67;14.50;;;;;;;;;;5019718;28;20506;-74
2022/01/26 20:43:04;;;;;;;18.70;10.63;;;;;;;;;;5035559;28;20061;-74
2022/01/26 20:45:32;;;;;;;30.35;14.93;;;;;;;;;;5035051;28;20041;-75
2022/01/26 20:48:01;;;;;;;30.42;16.02;;;;;;;;;;5030953;28;20354;-76
2022/01/26 20:50:32;;;;;;;30.27;15.38;;;;;;;;;;5009366;28;20280;-73
2022/01/26 20:53:01;;;;;;;26.05;11.55;;;;;;;;;;5036444;28;20289;-75
2022/01/26 20:55:28;;;;;;;33.45;16.23;;;;;;;;;;5022213;28;20067;-74
2022/01/26 20:57:56;;;;;;;22.80;11.95;;;;;;;;;;5037172;28;20052;-74
2022/01/26 21:00:23;;;;;;;25.98;13.73;;;;;;;;;;5033781;28;20830;-75
2022/01/26 21:02:53;;;;;;;24.08;13.93;;;;;;;;;;5031921;28;20050;-75
2022/01/26 21:05:22;;;;;;;26.27;15.88;;;;;;;;;;5036812;28;20049;-75
2022/01/26 21:07:50;;;;;;;21.08;12.23;;;;;;;;;;5032917;28;20053;-75
2022/01/26 21:10:18;;;;;;;23.30;13.25;;;;;;;;;;5033989;28;20103;-74
2022/01/26 21:12:46;;;;;;;30.00;15.13;;;;;;;;;;5013028;28;20033;-76
2022/01/26 21:15:14;;;;;;;30.67;16.65;;;;;;;;;;5012945;28;20122;-73
2022/01/26 21:17:42;;;;;;;29.27;14.98;;;;;;;;;;5029306;28;20107;-75